sensor_id;sensor_type;location;lat;lon;timestamp;pressure;altitude;pressure_sealevel;temperature;humidity
12468;BME280;57850;52.922;6.256;2023-04-26T00:01:33;102256.63;;;7.29;100.00
12468;BME280;57850;52.922;6.256;2023-04-26T00:03:59;102260.94;;;7.15;100.00
12468;BME280;57850;52.922;6.256;2023-04-26T00:06:26;102251.44;;;7.23;100.00
12468;BME280;57850;52.922;6.256;2023-04-26T00:08:53;102247.09;;;7.46;100.00
12468;BME280;57850;52.922;6.256;2023-04-26T00:11:21;102250.56;;;7.36;100.00
12468;BME280;57850;52.922;6.256;2023-04-26T00:13:47;102243.63;;;7.47;100.00
12468;BME280;57850;52.922;6.256;2023-04-26T00:16:14;102236.69;;;7.57;100.00
12468;BME280;57850;52.922;6.256;2023-04-26T00:18:41;102241.88;;;7.58;100.00
12468;BME280;57850;52.922;6.256;2023-04-26T00:21:07;102254.00;;;7.53;100.00
12468;BME280;57850;52.922;6.256;2023-04-26T00:23:34;102237.56;;;7.63;100.00
12468;BME280;57850;52.922;6.256;2023-04-26T00:26:01;102232.31;;;7.74;100.00
12468;BME280;57850;52.922;6.256;2023-04-26T00:28:29;102218.44;;;7.91;100.00
12468;BME280;57850;52.922;6.256;2023-04-26T00:30:55;102234.88;;;7.96;100.00
12468;BME280;57850;52.922;6.256;2023-04-26T00:33:22;102236.66;;;7.79;100.00
12468;BME280;57850;52.922;6.256;2023-04-26T00:35:49;102238.41;;;7.65;100.00
12468;BME280;57850;52.922;6.256;2023-04-26T00:38:15;102236.69;;;7.60;100.00
12468;BME280;57850;52.922;6.256;2023-04-26T00:40:42;102237.56;;;7.63;100.00
12468;BME280;57850;52.922;6.256;2023-04-26T00:43:09;102239.28;;;7.49;100.00
12468;BME280;57850;52.922;6.256;2023-04-26T00:45:37;102227.16;;;7.62;100.00
12468;BME280;57850;52.922;6.256;2023-04-26T00:48:05;102235.84;;;7.45;100.00
12468;BME280;57850;52.922;6.256;2023-04-26T00:50:32;102228.03;;;7.58;100.00
12468;BME280;57850;52.922;6.256;2023-04-26T00:52:58;102239.31;;;7.35;100.00
12468;BME280;57850;52.922;6.256;2023-04-26T00:55:27;102221.97;;;7.52;100.00
12468;BME280;57850;52.922;6.256;2023-04-26T00:57:53;102228.06;;;7.51;100.00
12468;BME280;57850;52.922;6.256;2023-04-26T01:00:20;102242.78;;;7.28;100.00
12468;BME280;57850;52.922;6.256;2023-04-26T01:02:48;102229.81;;;7.42;100.00
12468;BME280;57850;52.922;6.256;2023-04-26T01:05:15;102230.66;;;7.18;100.00
12468;BME280;57850;52.922;6.256;2023-04-26T01:07:42;102241.03;;;7.15;100.00
12468;BME280;57850;52.922;6.256;2023-04-26T01:10:09;102238.47;;;7.20;100.00
12468;BME280;57850;52.922;6.256;2023-04-26T01:12:37;102240.16;;;7.09;100.00
12468;BME280;57850;52.922;6.256;2023-04-26T01:15:04;102246.22;;;6.94;100.00
12468;BME280;57850;52.922;6.256;2023-04-26T01:17:32;102247.94;;;7.12;100.00
12468;BME280;57850;52.922;6.256;2023-04-26T01:20:00;102247.09;;;7.22;100.00
12468;BME280;57850;52.922;6.256;2023-04-26T01:22:32;102249.69;;;7.04;100.00
12468;BME280;57850;52.922;6.256;2023-04-26T01:25:00;102244.50;;;7.19;100.00
12468;BME280;57850;52.922;6.256;2023-04-26T01:27:29;102246.22;;;7.21;100.00
12468;BME280;57850;52.922;6.256;2023-04-26T01:29:55;102242.78;;;7.25;100.00
12468;BME280;57850;52.922;6.256;2023-04-26T01:32:22;102236.72;;;7.47;100.00
12468;BME280;57850;52.922;6.256;2023-04-26T01:34:48;102239.28;;;7.46;100.00
12468;BME280;57850;52.922;6.256;2023-04-26T01:37:15;102228.03;;;7.53;100.00
12468;BME280;57850;52.922;6.256;2023-04-26T01:39:43;102230.59;;;7.65;100.00
12468;BME280;57850;52.922;6.256;2023-04-26T01:42:10;102209.84;;;7.64;100.00
12468;BME280;57850;52.922;6.256;2023-04-26T01:44:37;102210.69;;;7.66;100.00
12468;BME280;57850;52.922;6.256;2023-04-26T01:47:03;102215.06;;;7.54;100.00
12468;BME280;57850;52.922;6.256;2023-04-26T01:49:30;102213.34;;;7.41;100.00
12468;BME280;57850;52.922;6.256;2023-04-26T01:51:57;102210.69;;;7.58;100.00
12468;BME280;57850;52.922;6.256;2023-04-26T01:54:24;102219.41;;;7.27;100.00
12468;BME280;57850;52.922;6.256;2023-04-26T01:56:52;102213.34;;;7.43;100.00
12468;BME280;57850;52.922;6.256;2023-04-26T01:59:18;102209.84;;;7.61;100.00
12468;BME280;57850;52.922;6.256;2023-04-26T02:01:45;102217.69;;;7.45;100.00
12468;BME280;57850;52.922;6.256;2023-04-26T02:04:11;102211.56;;;7.66;100.00
12468;BME280;57850;52.922;6.256;2023-04-26T02:06:38;102216.78;;;7.57;100.00
12468;BME280;57850;52.922;6.256;2023-04-26T02:09:06;102205.50;;;7.73;100.00
12468;BME280;57850;52.922;6.256;2023-04-26T02:11:33;102192.47;;;7.81;100.00
12468;BME280;57850;52.922;6.256;2023-04-26T02:14:02;102208.09;;;7.72;100.00
12468;BME280;57850;52.922;6.256;2023-04-26T02:16:28;102199.41;;;7.82;100.00
12468;BME280;57850;52.922;6.256;2023-04-26T02:18:55;102202.00;;;7.77;100.00
12468;BME280;57850;52.922;6.256;2023-04-26T02:21:21;102203.75;;;7.72;100.00
12468;BME280;57850;52.922;6.256;2023-04-26T02:23:48;102196.81;;;7.79;100.00
12468;BME280;57850;52.922;6.256;2023-04-26T02:26:14;102202.94;;;7.53;100.00
12468;BME280;57850;52.922;6.256;2023-04-26T02:28:41;102211.63;;;7.25;100.00
12468;BME280;57850;52.922;6.256;2023-04-26T02:31:09;102219.41;;;6.90;100.00
12468;BME280;57850;52.922;6.256;2023-04-26T02:33:36;102234.03;;;6.47;100.00
12468;BME280;57850;52.922;6.256;2023-04-26T02:36:03;102242.59;;;6.28;100.00
12468;BME280;57850;52.922;6.256;2023-04-26T02:38:32;102226.25;;;6.52;100.00
12468;BME280;57850;52.922;6.256;2023-04-26T02:40:59;102222.84;;;6.74;100.00
12468;BME280;57850;52.922;6.256;2023-04-26T02:43:26;102234.88;;;6.42;100.00
12468;BME280;57850;52.922;6.256;2023-04-26T02:45:52;102227.94;;;6.35;100.00
12468;BME280;57850;52.922;6.256;2023-04-26T02:48:20;102237.38;;;6.24;100.00
12468;BME280;57850;52.922;6.256;2023-04-26T02:50:47;102224.50;;;6.39;100.00
12468;BME280;57850;52.922;6.256;2023-04-26T02:53:14;102216.72;;;6.43;100.00
12468;BME280;57850;52.922;6.256;2023-04-26T02:55:42;102207.22;;;6.50;100.00
12468;BME280;57850;52.922;6.256;2023-04-26T02:58:08;102221.00;;;6.31;100.00
12468;BME280;57850;52.922;6.256;2023-04-26T03:00:35;102221.00;;;6.31;100.00
12468;BME280;57850;52.922;6.256;2023-04-26T03:03:02;102221.81;;;6.18;100.00
12468;BME280;57850;52.922;6.256;2023-04-26T03:05:30;102211.50;;;6.31;100.00
12468;BME280;57850;52.922;6.256;2023-04-26T03:07:57;102217.50;;;6.17;100.00
12468;BME280;57850;52.922;6.256;2023-04-26T03:10:24;102216.63;;;6.18;100.00
12468;BME280;57850;52.922;6.256;2023-04-26T03:12:50;102218.31;;;6.08;100.00
12468;BME280;57850;52.922;6.256;2023-04-26T03:15:17;102212.38;;;6.33;100.00
12468;BME280;57850;52.922;6.256;2023-04-26T03:17:43;102201.19;;;6.59;100.00
12468;BME280;57850;52.922;6.256;2023-04-26T03:20:10;102203.78;;;6.65;100.00
12468;BME280;57850;52.922;6.256;2023-04-26T03:22:39;102214.13;;;6.42;100.00
12468;BME280;57850;52.922;6.256;2023-04-26T03:25:06;102203.81;;;6.63;100.00
12468;BME280;57850;52.922;6.256;2023-04-26T03:27:33;102210.72;;;6.67;100.00
12468;BME280;57850;52.922;6.256;2023-04-26T03:30:00;102202.09;;;6.86;100.00
12468;BME280;57850;52.922;6.256;2023-04-26T03:32:28;102210.69;;;6.58;100.00
12468;BME280;57850;52.922;6.256;2023-04-26T03:34:54;102201.22;;;6.69;100.00
12468;BME280;57850;52.922;6.256;2023-04-26T03:37:21;102201.25;;;6.78;100.00
12468;BME280;57850;52.922;6.256;2023-04-26T03:39:49;102202.94;;;6.69;100.00
12468;BME280;57850;52.922;6.256;2023-04-26T03:42:16;102210.66;;;6.35;100.00
12468;BME280;57850;52.922;6.256;2023-04-26T03:44:43;102203.78;;;6.42;100.00
12468;BME280;57850;52.922;6.256;2023-04-26T03:47:09;102207.19;;;6.32;100.00
12468;BME280;57850;52.922;6.256;2023-04-26T03:49:36;102207.16;;;6.27;100.00
12468;BME280;57850;52.922;6.256;2023-04-26T03:52:02;102209.75;;;6.23;100.00
12468;BME280;57850;52.922;6.256;2023-04-26T03:54:29;102203.72;;;6.31;100.00
12468;BME280;57850;52.922;6.256;2023-04-26T03:56:57;102202.81;;;6.19;100.00
12468;BME280;57850;52.922;6.256;2023-04-26T03:59:24;102219.09;;;5.92;100.00
12468;BME280;57850;52.922;6.256;2023-04-26T04:01:50;102209.66;;;6.00;100.00
12468;BME280;57850;52.922;6.256;2023-04-26T04:04:17;102201.06;;;6.07;100.00
12468;BME280;57850;52.922;6.256;2023-04-26T04:06:43;102211.34;;;5.93;100.00
12468;BME280;57850;52.922;6.256;2023-04-26T04:09:10;102202.53;;;5.70;100.00
12468;BME280;57850;52.922;6.256;2023-04-26T04:11:37;102207.69;;;5.64;100.00
12468;BME280;57850;52.922;6.256;2023-04-26T04:14:04;102198.22;;;5.68;100.00
12468;BME280;57850;52.922;6.256;2023-04-26T04:16:32;102195.72;;;5.84;100.00
12468;BME280;57850;52.922;6.256;2023-04-26T04:18:58;102198.38;;;5.90;100.00
12468;BME280;57850;52.922;6.256;2023-04-26T04:21:25;102182.06;;;6.13;100.00
12468;BME280;57850;52.922;6.256;2023-04-26T04:23:51;102180.31;;;6.12;100.00
12468;BME280;57850;52.922;6.256;2023-04-26T04:26:18;102189.00;;;6.17;100.00
12468;BME280;57850;52.922;6.256;2023-04-26T04:28:45;102200.19;;;6.10;100.00
12468;BME280;57850;52.922;6.256;2023-04-26T04:31:14;102205.38;;;6.10;100.00
12468;BME280;57850;52.922;6.256;2023-04-26T04:33:41;102207.97;;;6.10;100.00
12468;BME280;57850;52.922;6.256;2023-04-26T04:36:08;102212.19;;;5.89;100.00
12468;BME280;57850;52.922;6.256;2023-04-26T04:38:35;102214.81;;;5.94;100.00
12468;BME280;57850;52.922;6.256;2023-04-26T04:41:01;102217.34;;;5.89;100.00
12468;BME280;57850;52.922;6.256;2023-04-26T04:43:28;102216.50;;;5.87;100.00
12468;BME280;57850;52.922;6.256;2023-04-26T04:45:55;102210.34;;;5.76;100.00
12468;BME280;57850;52.922;6.256;2023-04-26T04:48:24;102217.28;;;5.76;100.00
12468;BME280;57850;52.922;6.256;2023-04-26T04:50:50;102218.09;;;5.72;100.00
12468;BME280;57850;52.922;6.256;2023-04-26T04:53:17;102213.03;;;5.87;100.00
12468;BME280;57850;52.922;6.256;2023-04-26T04:55:44;102208.78;;;6.03;100.00
12468;BME280;57850;52.922;6.256;2023-04-26T04:58:10;102196.75;;;6.15;100.00
12468;BME280;57850;52.922;6.256;2023-04-26T05:00:38;102189.94;;;6.43;100.00
12468;BME280;57850;52.922;6.256;2023-04-26T05:03:05;102186.50;;;6.62;100.00
12468;BME280;57850;52.922;6.256;2023-04-26T05:05:35;102192.50;;;6.40;100.00
12468;BME280;57850;52.922;6.256;2023-04-26T05:08:02;102175.28;;;6.69;100.00
12468;BME280;57850;52.922;6.256;2023-04-26T05:10:29;102177.91;;;6.81;100.00
12468;BME280;57850;52.922;6.256;2023-04-26T05:12:55;102178.75;;;6.91;100.00
12468;BME280;57850;52.922;6.256;2023-04-26T05:15:22;102178.75;;;6.98;100.00
12468;BME280;57850;52.922;6.256;2023-04-26T05:17:48;102180.50;;;7.04;100.00
12468;BME280;57850;52.922;6.256;2023-04-26T05:20:15;102179.63;;;6.94;100.00
12468;BME280;57850;52.922;6.256;2023-04-26T05:22:43;102177.88;;;7.12;100.00
12468;BME280;57850;52.922;6.256;2023-04-26T05:25:10;102177.88;;;7.19;100.00
12468;BME280;57850;52.922;6.256;2023-04-26T05:27:38;102181.34;;;7.21;100.00
12468;BME280;57850;52.922;6.256;2023-04-26T05:30:06;102177.81;;;7.52;100.00
12468;BME280;57850;52.922;6.256;2023-04-26T05:32:33;102183.00;;;7.66;100.00
12468;BME280;57850;52.922;6.256;2023-04-26T05:35:00;102178.63;;;7.80;100.00
12468;BME280;57850;52.922;6.256;2023-04-26T05:37:27;102171.56;;;8.13;100.00
12468;BME280;57850;52.922;6.256;2023-04-26T05:39:54;102175.88;;;8.15;100.00
12468;BME280;57850;52.922;6.256;2023-04-26T05:42:21;102180.28;;;8.04;100.00
12468;BME280;57850;52.922;6.256;2023-04-26T05:44:48;102186.41;;;7.83;100.00
12468;BME280;57850;52.922;6.256;2023-04-26T05:47:14;102194.19;;;7.85;100.00
12468;BME280;57850;52.922;6.256;2023-04-26T05:49:41;102193.34;;;7.81;100.00
12468;BME280;57850;52.922;6.256;2023-04-26T05:52:07;102188.09;;;7.90;100.00
12468;BME280;57850;52.922;6.256;2023-04-26T05:54:34;102190.69;;;8.01;100.00
12468;BME280;57850;52.922;6.256;2023-04-26T05:57:02;102185.38;;;8.30;100.00
12468;BME280;57850;52.922;6.256;2023-04-26T05:59:29;102187.06;;;8.38;100.00
12468;BME280;57850;52.922;6.256;2023-04-26T06:01:57;102186.25;;;8.23;100.00
12468;BME280;57850;52.922;6.256;2023-04-26T06:04:24;102194.13;;;8.06;100.00
12468;BME280;57850;52.922;6.256;2023-04-26T06:06:51;102199.38;;;7.88;100.00
12468;BME280;57850;52.922;6.256;2023-04-26T06:09:17;102203.75;;;7.71;100.00
12468;BME280;57850;52.922;6.256;2023-04-26T06:11:44;102189.00;;;7.92;100.00
12468;BME280;57850;52.922;6.256;2023-04-26T06:14:12;102188.88;;;8.20;100.00
12468;BME280;57850;52.922;6.256;2023-04-26T06:16:39;102205.38;;;8.06;100.00
12468;BME280;57850;52.922;6.256;2023-04-26T06:19:07;102200.09;;;8.28;100.00
12468;BME280;57850;52.922;6.256;2023-04-26T06:21:34;102209.66;;;8.15;100.00
12468;BME280;57850;52.922;6.256;2023-04-26T06:24:00;102204.34;;;8.48;100.00
12468;BME280;57850;52.922;6.256;2023-04-26T06:26:27;102203.38;;;8.66;100.00
12468;BME280;57850;52.922;6.256;2023-04-26T06:28:54;102200.69;;;8.77;100.00
12468;BME280;57850;52.922;6.256;2023-04-26T06:31:22;102204.13;;;8.77;100.00
12468;BME280;57850;52.922;6.256;2023-04-26T06:33:49;102206.75;;;8.79;100.00
12468;BME280;57850;52.922;6.256;2023-04-26T06:36:15;102202.16;;;9.14;100.00
12468;BME280;57850;52.922;6.256;2023-04-26T06:38:42;102192.31;;;9.43;100.00
12468;BME280;57850;52.922;6.256;2023-04-26T06:41:08;102208.75;;;9.50;100.00
12468;BME280;57850;52.922;6.256;2023-04-26T06:43:35;102199.91;;;9.67;100.00
12468;BME280;57850;52.922;6.256;2023-04-26T06:46:02;102194.44;;;9.87;100.00
12468;BME280;57850;52.922;6.256;2023-04-26T06:48:30;102202.25;;;9.89;100.00
12468;BME280;57850;52.922;6.256;2023-04-26T06:50:57;102207.81;;;9.55;100.00
12468;BME280;57850;52.922;6.256;2023-04-26T06:53:24;102187.44;;;9.91;100.00
12468;BME280;57850;52.922;6.256;2023-04-26T06:55:50;102198.00;;;9.79;100.00
12468;BME280;57850;52.922;6.256;2023-04-26T06:58:18;102204.50;;;9.40;100.00
12468;BME280;57850;52.922;6.256;2023-04-26T07:00:45;102191.56;;;10.11;100.00
12468;BME280;57850;52.922;6.256;2023-04-26T07:03:11;102182.50;;;10.40;100.00
12468;BME280;57850;52.922;6.256;2023-04-26T07:05:39;102175.75;;;10.83;100.00
12468;BME280;57850;52.922;6.256;2023-04-26T07:08:06;102161.41;;;11.08;100.00
12468;BME280;57850;52.922;6.256;2023-04-26T07:10:32;102153.78;;;11.44;100.00
12468;BME280;57850;52.922;6.256;2023-04-26T07:12:59;102165.63;;;11.17;100.00
12468;BME280;57850;52.922;6.256;2023-04-26T07:15:26;102165.50;;;11.21;100.00
12468;BME280;57850;52.922;6.256;2023-04-26T07:17:53;102158.88;;;11.51;100.00
12468;BME280;57850;52.922;6.256;2023-04-26T07:20:19;102139.13;;;11.82;100.00
12468;BME280;57850;52.922;6.256;2023-04-26T07:22:48;102179.16;;;10.90;100.00
12468;BME280;57850;52.922;6.256;2023-04-26T07:25:15;102160.88;;;11.37;100.00
12468;BME280;57850;52.922;6.256;2023-04-26T07:27:41;102138.38;;;11.77;100.00
12468;BME280;57850;52.922;6.256;2023-04-26T07:30:09;102132.09;;;11.85;100.00
12468;BME280;57850;52.922;6.256;2023-04-26T07:32:35;102130.06;;;11.99;100.00
12468;BME280;57850;52.922;6.256;2023-04-26T07:35:06;102140.19;;;11.74;100.00
12468;BME280;57850;52.922;6.256;2023-04-26T07:37:34;102111.19;;;12.24;100.00
12468;BME280;57850;52.922;6.256;2023-04-26T07:40:04;102117.59;;;12.11;100.00
12468;BME280;57850;52.922;6.256;2023-04-26T07:42:32;102154.53;;;11.50;100.00
12468;BME280;57850;52.922;6.256;2023-04-26T07:44:59;102164.31;;;11.41;100.00
12468;BME280;57850;52.922;6.256;2023-04-26T07:47:25;102177.25;;;10.98;100.00
12468;BME280;57850;52.922;6.256;2023-04-26T07:49:52;102158.72;;;11.60;100.00
12468;BME280;57850;52.922;6.256;2023-04-26T07:52:19;102180.88;;;10.89;100.00
12468;BME280;57850;52.922;6.256;2023-04-26T07:54:46;102175.28;;;11.12;100.00
12468;BME280;57850;52.922;6.256;2023-04-26T07:57:14;102185.75;;;11.09;100.00
12468;BME280;57850;52.922;6.256;2023-04-26T07:59:40;102168.41;;;11.54;100.00
12468;BME280;57850;52.922;6.256;2023-04-26T08:02:07;102175.84;;;11.29;100.00
12468;BME280;57850;52.922;6.256;2023-04-26T08:04:33;102179.88;;;11.47;100.00
12468;BME280;57850;52.922;6.256;2023-04-26T08:07:01;102136.78;;;12.10;100.00
12468;BME280;57850;52.922;6.256;2023-04-26T08:09:28;102137.44;;;12.20;100.00
12468;BME280;57850;52.922;6.256;2023-04-26T08:11:54;102147.41;;;12.43;100.00
12468;BME280;57850;52.922;6.256;2023-04-26T08:14:22;102108.44;;;12.66;100.00
12468;BME280;57850;52.922;6.256;2023-04-26T08:16:49;102139.47;;;12.07;100.00
12468;BME280;57850;52.922;6.256;2023-04-26T08:19:16;102125.88;;;12.67;100.00
12468;BME280;57850;52.922;6.256;2023-04-26T08:21:42;102134.38;;;12.01;100.00
12468;BME280;57850;52.922;6.256;2023-04-26T08:24:09;102165.59;;;11.64;100.00
12468;BME280;57850;52.922;6.256;2023-04-26T08:26:35;102151.47;;;12.17;100.00
12468;BME280;57850;52.922;6.256;2023-04-26T08:29:02;102133.91;;;12.59;100.00
12468;BME280;57850;52.922;6.256;2023-04-26T08:31:30;102109.19;;;12.71;100.00
12468;BME280;57850;52.922;6.256;2023-04-26T08:33:57;102075.91;;;13.10;100.00
12468;BME280;57850;52.922;6.256;2023-04-26T08:36:23;102076.59;;;13.16;100.00
12468;BME280;57850;52.922;6.256;2023-04-26T08:38:50;102085.63;;;13.03;100.00
12468;BME280;57850;52.922;6.256;2023-04-26T08:41:21;102066.78;;;13.24;100.00
12468;BME280;57850;52.922;6.256;2023-04-26T08:43:48;102076.03;;;12.70;100.00
12468;BME280;57850;52.922;6.256;2023-04-26T08:46:18;102123.31;;;11.89;100.00
12468;BME280;57850;52.922;6.256;2023-04-26T08:48:50;102094.50;;;12.65;100.00
12468;BME280;57850;52.922;6.256;2023-04-26T08:51:20;102079.78;;;13.58;100.00
12468;BME280;57850;52.922;6.256;2023-04-26T08:53:48;102030.91;;;14.40;100.00
12468;BME280;57850;52.922;6.256;2023-04-26T08:56:17;102033.34;;;14.71;100.00
12468;BME280;57850;52.922;6.256;2023-04-26T08:58:43;102023.81;;;14.93;100.00
12468;BME280;57850;52.922;6.256;2023-04-26T09:01:13;102068.22;;;13.65;100.00
12468;BME280;57850;52.922;6.256;2023-04-26T09:03:40;102067.44;;;13.62;100.00
12468;BME280;57850;52.922;6.256;2023-04-26T09:06:08;102083.19;;;13.31;100.00
12468;BME280;57850;52.922;6.256;2023-04-26T09:08:38;102034.69;;;14.30;100.00
12468;BME280;57850;52.922;6.256;2023-04-26T09:11:05;102018.66;;;14.90;100.00
12468;BME280;57850;52.922;6.256;2023-04-26T09:13:32;101988.91;;;15.36;100.00
12468;BME280;57850;52.922;6.256;2023-04-26T09:15:58;101955.16;;;15.71;100.00
12468;BME280;57850;52.922;6.256;2023-04-26T09:18:25;101983.72;;;15.12;100.00
12468;BME280;57850;52.922;6.256;2023-04-26T09:21:03;102036.66;;;13.68;98.90
12468;BME280;57850;52.922;6.256;2023-04-26T09:23:31;102043.97;;;14.14;100.00
12468;BME280;57850;52.922;6.256;2023-04-26T09:26:18;102027.16;;;13.92;99.05
12468;BME280;57850;52.922;6.256;2023-04-26T09:28:45;102097.69;;;13.12;100.00
12468;BME280;57850;52.922;6.256;2023-04-26T09:31:35;102162.25;;;12.79;100.00
12468;BME280;57850;52.922;6.256;2023-04-26T09:34:02;102196.81;;;12.18;100.00
12468;BME280;57850;52.922;6.256;2023-04-26T09:36:28;102192.06;;;12.35;100.00
12468;BME280;57850;52.922;6.256;2023-04-26T09:38:58;102175.25;;;12.47;100.00
12468;BME280;57850;52.922;6.256;2023-04-26T09:41:41;102179.69;;;12.80;100.00
12468;BME280;57850;52.922;6.256;2023-04-26T09:44:20;102179.47;;;12.87;100.00
12468;BME280;57850;52.922;6.256;2023-04-26T09:46:56;102194.47;;;12.46;100.00
12468;BME280;57850;52.922;6.256;2023-04-26T09:49:24;102195.03;;;12.58;100.00
12468;BME280;57850;52.922;6.256;2023-04-26T09:51:59;102181.34;;;12.84;100.00
12468;BME280;57850;52.922;6.256;2023-04-26T09:54:38;102180.41;;;12.85;100.00
12468;BME280;57850;52.922;6.256;2023-04-26T09:57:05;102177.00;;;12.83;100.00
12468;BME280;57850;52.922;6.256;2023-04-26T09:59:39;102183.25;;;12.77;100.00
12468;BME280;57850;52.922;6.256;2023-04-26T10:02:12;102170.63;;;12.93;100.00
12468;BME280;57850;52.922;6.256;2023-04-26T10:04:40;102151.94;;;13.08;100.00
12468;BME280;57850;52.922;6.256;2023-04-26T10:07:08;102153.03;;;12.98;100.00
12468;BME280;57850;52.922;6.256;2023-04-26T10:09:35;102123.03;;;13.44;100.00
12468;BME280;57850;52.922;6.256;2023-04-26T10:12:03;102102.56;;;14.15;100.00
12468;BME280;57850;52.922;6.256;2023-04-26T10:14:30;102079.53;;;14.24;100.00
12468;BME280;57850;52.922;6.256;2023-04-26T10:16:57;102057.13;;;14.93;100.00
12468;BME280;57850;52.922;6.256;2023-04-26T10:19:23;102026.13;;;15.50;100.00
12468;BME280;57850;52.922;6.256;2023-04-26T10:21:52;102021.75;;;15.73;100.00
12468;BME280;57850;52.922;6.256;2023-04-26T10:24:21;102039.69;;;15.15;100.00
12468;BME280;57850;52.922;6.256;2023-04-26T10:26:49;102050.97;;;14.94;100.00
12468;BME280;57850;52.922;6.256;2023-04-26T10:29:19;102092.56;;;14.00;100.00
12468;BME280;57850;52.922;6.256;2023-04-26T10:32:05;102039.28;;;15.01;100.00
12468;BME280;57850;52.922;6.256;2023-04-26T10:34:33;102064.53;;;14.28;100.00
12468;BME280;57850;52.922;6.256;2023-04-26T10:37:08;102045.22;;;14.29;100.00
12468;BME280;57850;52.922;6.256;2023-04-26T10:39:35;102062.97;;;14.50;100.00
12468;BME280;57850;52.922;6.256;2023-04-26T10:42:22;102000.47;;;15.09;98.66
12468;BME280;57850;52.922;6.256;2023-04-26T10:44:50;101998.84;;;15.05;100.00
12468;BME280;57850;52.922;6.256;2023-04-26T10:47:28;101962.28;;;15.69;97.45
12468;BME280;57850;52.922;6.256;2023-04-26T10:50:03;101937.66;;;16.13;96.90
12468;BME280;57850;52.922;6.256;2023-04-26T10:52:31;101962.31;;;15.67;96.66
12468;BME280;57850;52.922;6.256;2023-04-26T10:54:58;101923.13;;;16.65;94.95
12468;BME280;57850;52.922;6.256;2023-04-26T10:57:49;101919.78;;;16.80;95.66
12468;BME280;57850;52.922;6.256;2023-04-26T11:00:28;101912.13;;;16.94;95.79
12468;BME280;57850;52.922;6.256;2023-04-26T11:02:57;101895.66;;;17.27;95.28
12468;BME280;57850;52.922;6.256;2023-04-26T11:05:37;101881.25;;;17.88;94.48
12468;BME280;57850;52.922;6.256;2023-04-26T11:08:07;101864.00;;;17.98;93.83
12468;BME280;57850;52.922;6.256;2023-04-26T11:10:36;101900.47;;;17.19;93.71
12468;BME280;57850;52.922;6.256;2023-04-26T11:13:03;101927.50;;;16.85;94.84
12468;BME280;57850;52.922;6.256;2023-04-26T11:15:31;101942.53;;;16.83;98.21
12468;BME280;57850;52.922;6.256;2023-04-26T11:18:01;102030.84;;;15.16;99.79
12468;BME280;57850;52.922;6.256;2023-04-26T11:20:29;102030.03;;;15.16;100.00
12468;BME280;57850;52.922;6.256;2023-04-26T11:22:57;102034.13;;;15.23;100.00
12468;BME280;57850;52.922;6.256;2023-04-26T11:25:24;102041.22;;;15.21;100.00
12468;BME280;57850;52.922;6.256;2023-04-26T11:27:56;102044.00;;;14.91;100.00
12468;BME280;57850;52.922;6.256;2023-04-26T11:30:23;102061.19;;;14.51;100.00
12468;BME280;57850;52.922;6.256;2023-04-26T11:32:51;102054.06;;;14.54;99.93
12468;BME280;57850;52.922;6.256;2023-04-26T11:35:17;102071.53;;;14.55;100.00
12468;BME280;57850;52.922;6.256;2023-04-26T11:37:44;102050.44;;;14.58;99.62
12468;BME280;57850;52.922;6.256;2023-04-26T11:40:11;102063.22;;;14.69;100.00
12468;BME280;57850;52.922;6.256;2023-04-26T11:42:38;102072.69;;;14.73;100.00
12468;BME280;57850;52.922;6.256;2023-04-26T11:45:07;102102.63;;;14.41;100.00
12468;BME280;57850;52.922;6.256;2023-04-26T11:47:34;102115.44;;;13.94;100.00
12468;BME280;57850;52.922;6.256;2023-04-26T11:50:03;102130.47;;;13.89;100.00
12468;BME280;57850;52.922;6.256;2023-04-26T11:52:33;102152.75;;;13.75;100.00
12468;BME280;57850;52.922;6.256;2023-04-26T11:55:03;102176.03;;;13.55;100.00
12468;BME280;57850;52.922;6.256;2023-04-26T11:57:31;102153.47;;;13.80;100.00
12468;BME280;57850;52.922;6.256;2023-04-26T12:00:11;102160.41;;;13.82;100.00
12468;BME280;57850;52.922;6.256;2023-04-26T12:02:39;102172.72;;;13.48;100.00
12468;BME280;57850;52.922;6.256;2023-04-26T12:05:08;102164.69;;;13.85;100.00
12468;BME280;57850;52.922;6.256;2023-04-26T12:07:35;102144.66;;;14.12;100.00
12468;BME280;57850;52.922;6.256;2023-04-26T12:10:15;102143.81;;;14.11;100.00
12468;BME280;57850;52.922;6.256;2023-04-26T12:12:49;102145.72;;;14.06;100.00
12468;BME280;57850;52.922;6.256;2023-04-26T12:15:16;102141.50;;;14.28;100.00
12468;BME280;57850;52.922;6.256;2023-04-26T12:17:54;102163.06;;;13.81;100.00
12468;BME280;57850;52.922;6.256;2023-04-26T12:20:30;102141.66;;;13.94;100.00
12468;BME280;57850;52.922;6.256;2023-04-26T12:23:01;102120.88;;;14.16;100.00
12468;BME280;57850;52.922;6.256;2023-04-26T12:25:28;102094.31;;;14.55;100.00
12468;BME280;57850;52.922;6.256;2023-04-26T12:27:56;102086.09;;;14.65;100.00
12468;BME280;57850;52.922;6.256;2023-04-26T12:30:23;102067.09;;;15.08;100.00
12468;BME280;57850;52.922;6.256;2023-04-26T12:32:50;102082.09;;;14.54;100.00
12468;BME280;57850;52.922;6.256;2023-04-26T12:35:16;102090.94;;;14.51;100.00
12468;BME280;57850;52.922;6.256;2023-04-26T12:37:44;102079.09;;;14.66;100.00
12468;BME280;57850;52.922;6.256;2023-04-26T12:40:12;102064.22;;;15.16;100.00
12468;BME280;57850;52.922;6.256;2023-04-26T12:42:40;102048.13;;;15.48;100.00
12468;BME280;57850;52.922;6.256;2023-04-26T12:45:07;102046.94;;;14.84;97.72
12468;BME280;57850;52.922;6.256;2023-04-26T12:47:34;102054.97;;;15.04;99.45
12468;BME280;57850;52.922;6.256;2023-04-26T12:50:00;102011.47;;;15.43;96.60